Time;durP1;ratioP1;P1;durP2;ratioP2;P2;SDS_P1;SDS_P2;PMS_P1;PMS_P2;Temp;Humidity;BMP_temperature;BMP_pressure;BME280_temperature;BME280_humidity;BME280_pressure;Samples;Min_cycle;Max_cycle;Signal;HPM_P1;HPM_P2
2021/11/05 00:01:18;;;;;;;5.05;3.00;;;7.30;1.00;;;;;;5121977;27;20530;-84
2021/11/05 00:03:46;;;;;;;3.65;3.20;;;7.30;1.00;;;;;;5086620;27;20248;-85
2021/11/05 00:06:18;;;;;;;3.83;3.35;;;7.40;1.00;;;;;;5114615;27;20232;-85
2021/11/05 00:08:49;;;;;;;4.43;2.60;;;7.30;1.00;;;;;;5112988;27;21664;-87
2021/11/05 00:11:16;;;;;;;3.70;2.67;;;7.30;1.00;;;;;;5092469;27;20234;-84
2021/11/05 00:13:45;;;;;;;4.28;3.13;;;7.30;1.00;;;;;;5115913;27;20234;-86
2021/11/05 00:16:12;;;;;;;2.80;2.40;;;7.30;1.00;;;;;;5101556;27;20874;-84
2021/11/05 00:18:39;;;;;;;3.30;2.55;;;7.30;1.00;;;;;;5118588;27;20349;-85
2021/11/05 00:21:06;;;;;;;4.25;3.85;;;7.30;1.00;;;;;;5120208;27;20322;-84
2021/11/05 00:23:33;;;;;;;3.55;2.45;;;7.30;1.00;;;;;;5103839;27;20640;-85
2021/11/05 00:26:00;;;;;;;3.55;2.20;;;7.30;1.00;;;;;;5121611;27;20218;-85
2021/11/05 00:28:30;;;;;;;3.33;2.20;;;7.20;1.00;;;;;;5121207;27;20225;-85
2021/11/05 00:31:01;;;;;;;3.03;1.88;;;7.20;1.00;;;;;;5125163;27;20219;-84
2021/11/05 00:33:28;;;;;;;3.28;2.17;;;7.10;1.00;;;;;;5104972;27;21231;-85
2021/11/05 00:35:55;;;;;;;3.75;1.58;;;7.10;1.00;;;;;;5103189;27;20219;-85
2021/11/05 00:38:23;;;;;;;4.15;1.95;;;7.10;1.00;;;;;;5102650;27;20225;-84
2021/11/05 00:40:50;;;;;;;2.60;1.98;;;7.10;1.00;;;;;;5116126;27;20788;-83
2021/11/05 00:43:17;;;;;;;2.10;1.25;;;7.10;1.00;;;;;;5101701;27;20234;-85
2021/11/05 00:45:44;;;;;;;2.53;1.52;;;7.00;1.00;;;;;;5121018;27;20314;-85
2021/11/05 00:48:12;;;;;;;2.42;1.38;;;7.00;1.00;;;;;;5116640;27;20225;-85
2021/11/05 00:50:39;;;;;;;2.50;1.70;;;7.00;1.00;;;;;;5123278;27;20281;-83
2021/11/05 00:53:06;;;;;;;2.60;1.60;;;7.00;1.00;;;;;;5104275;27;20230;-83
2021/11/05 00:55:33;;;;;;;4.07;1.35;;;7.00;1.00;;;;;;5111454;27;20262;-83
2021/11/05 00:58:00;;;;;;;2.75;1.77;;;7.00;1.00;;;;;;5129167;27;20304;-83
2021/11/05 01:00:32;;;;;;;2.03;1.48;;;7.00;1.00;;;;;;5107772;27;20281;-83
2021/11/05 01:03:02;;;;;;;4.60;1.45;;;7.00;1.00;;;;;;5115007;27;20223;-84
2021/11/05 01:05:33;;;;;;;2.30;1.60;;;7.00;1.00;;;;;;5115204;27;20229;-84
2021/11/05 01:08:02;;;;;;;2.78;1.63;;;6.90;1.00;;;;;;5117638;27;21085;-85
2021/11/05 01:10:30;;;;;;;3.40;2.70;;;7.00;1.00;;;;;;5099224;27;20222;-84
2021/11/05 01:13:05;;;;;;;3.53;2.10;;;7.00;1.00;;;;;;5099384;27;20240;-84
2021/11/05 01:15:50;;;;;;;3.33;2.10;;;7.00;1.00;;;;;;5094459;27;20251;-84
2021/11/05 01:18:22;;;;;;;2.70;2.03;;;7.00;1.00;;;;;;5096135;27;20317;-83
2021/11/05 01:20:52;;;;;;;3.55;2.05;;;7.00;1.00;;;;;;5119058;27;20321;-84
2021/11/05 01:23:22;;;;;;;3.30;1.90;;;7.00;1.00;;;;;;5099633;27;20242;-85
2021/11/05 01:25:53;;;;;;;2.50;1.80;;;7.00;1.00;;;;;;5136859;27;20223;-82
2021/11/05 01:28:32;;;;;;;2.45;1.90;;;6.90;1.00;;;;;;5102440;27;20226;-85
2021/11/05 01:31:08;;;;;;;3.17;1.85;;;7.00;1.00;;;;;;5098386;27;20215;-84
2021/11/05 01:33:53;;;;;;;2.80;2.25;;;6.90;1.00;;;;;;5116505;27;20242;-85
2021/11/05 01:36:22;;;;;;;2.28;1.52;;;7.00;1.00;;;;;;5099103;27;20284;-86
2021/11/05 01:39:03;;;;;;;2.00;1.42;;;7.00;1.00;;;;;;5117519;27;20257;-85
2021/11/05 01:41:31;;;;;;;3.30;1.77;;;7.00;1.00;;;;;;5122263;27;20237;-84
2021/11/05 01:44:01;;;;;;;4.40;2.10;;;7.00;1.00;;;;;;5107443;27;20241;-85
2021/11/05 01:46:33;;;;;;;2.22;1.70;;;7.00;1.00;;;;;;5084566;27;20224;-85
2021/11/05 01:49:06;;;;;;;2.30;1.50;;;7.00;1.00;;;;;;5094027;27;20219;-86
2021/11/05 01:51:37;;;;;;;2.10;1.60;;;7.00;1.00;;;;;;5102306;27;20285;-85
2021/11/05 01:54:08;;;;;;;2.67;1.75;;;7.10;1.00;;;;;;5100156;27;20253;-85
2021/11/05 01:56:38;;;;;;;2.63;1.80;;;7.00;1.00;;;;;;5099429;27;20220;-84
2021/11/05 01:59:08;;;;;;;2.70;2.10;;;7.00;1.00;;;;;;5118402;27;20227;-86
2021/11/05 02:01:35;;;;;;;3.47;1.60;;;7.10;1.00;;;;;;5125503;27;20230;-85
2021/11/05 02:04:06;;;;;;;2.38;1.58;;;7.10;1.00;;;;;;5120660;27;20236;-85
2021/11/05 02:06:35;;;;;;;6.57;1.95;;;7.10;1.00;;;;;;5123426;27;20219;-85
2021/11/05 02:09:03;;;;;;;2.00;1.70;;;7.10;1.00;;;;;;5100526;27;20228;-85
2021/11/05 02:11:43;;;;;;;3.10;1.80;;;7.10;1.00;;;;;;5132338;27;20231;-84
2021/11/05 02:14:14;;;;;;;3.72;2.20;;;7.10;1.00;;;;;;5110739;27;20227;-85
2021/11/05 02:16:48;;;;;;;3.40;2.30;;;7.10;1.00;;;;;;5117209;27;20242;-86
2021/11/05 02:19:17;;;;;;;2.65;1.85;;;7.10;1.00;;;;;;5095054;27;20219;-85
2021/11/05 02:21:47;;;;;;;3.47;2.00;;;7.10;1.00;;;;;;5117676;27;20222;-85
2021/11/05 02:24:16;;;;;;;2.40;1.77;;;7.10;1.00;;;;;;5114268;27;20280;-86
2021/11/05 02:26:49;;;;;;;2.80;1.95;;;7.10;1.00;;;;;;5118586;27;20224;-83
2021/11/05 02:29:17;;;;;;;2.90;1.77;;;7.10;1.00;;;;;;5101103;27;20254;-84
2021/11/05 02:31:44;;;;;;;2.92;1.80;;;7.10;1.00;;;;;;5101533;27;20239;-84
2021/11/05 02:34:17;;;;;;;2.42;1.70;;;7.10;1.00;;;;;;5119257;27;20726;-84
2021/11/05 02:36:46;;;;;;;2.53;1.50;;;7.10;1.00;;;;;;5128331;27;20214;-83
2021/11/05 02:39:16;;;;;;;2.65;2.00;;;7.10;1.00;;;;;;5134575;27;20237;-84
2021/11/05 02:41:48;;;;;;;2.47;1.60;;;7.10;1.00;;;;;;5101918;27;20294;-82
2021/11/05 02:44:16;;;;;;;2.35;1.50;;;7.10;1.00;;;;;;5116506;27;20235;-85
2021/11/05 02:46:49;;;;;;;3.78;1.63;;;7.10;1.00;;;;;;5099671;27;20264;-84
2021/11/05 02:49:18;;;;;;;3.05;2.25;;;7.10;1.00;;;;;;5095419;27;20302;-84
2021/11/05 02:51:49;;;;;;;2.78;1.80;;;7.10;1.00;;;;;;5116141;27;20260;-86
2021/11/05 02:54:17;;;;;;;3.75;2.20;;;7.10;1.00;;;;;;5096007;27;20226;-85
2021/11/05 02:56:51;;;;;;;4.00;1.88;;;7.10;1.00;;;;;;5115688;27;20212;-85
2021/11/05 02:59:28;;;;;;;2.90;2.20;;;7.20;1.00;;;;;;5099580;27;20294;-84
2021/11/05 03:01:57;;;;;;;3.35;2.08;;;7.20;1.00;;;;;;5120789;27;20627;-85
2021/11/05 03:04:29;;;;;;;3.45;2.45;;;7.20;1.00;;;;;;5095667;27;20231;-83
2021/11/05 03:07:01;;;;;;;3.05;2.00;;;7.20;1.00;;;;;;5101663;27;20211;-84
2021/11/05 03:09:32;;;;;;;3.97;2.55;;;7.20;1.00;;;;;;5140332;27;20212;-82
2021/11/05 03:12:00;;;;;;;3.78;2.00;;;7.20;1.00;;;;;;5116531;27;20332;-84
2021/11/05 03:14:27;;;;;;;4.13;2.70;;;7.20;1.00;;;;;;5100664;27;20242;-84
2021/11/05 03:16:54;;;;;;;3.45;2.80;;;7.20;1.00;;;;;;5095275;27;20360;-82
2021/11/05 03:19:22;;;;;;;4.03;2.70;;;7.20;1.00;;;;;;5102788;27;20291;-83
2021/11/05 03:21:49;;;;;;;4.18;2.90;;;7.20;1.00;;;;;;5095597;27;20226;-83
2021/11/05 03:24:18;;;;;;;4.28;3.33;;;7.20;1.00;;;;;;5114068;27;20254;-84
2021/11/05 03:26:45;;;;;;;4.78;3.25;;;7.30;1.00;;;;;;5120815;27;20233;-83
2021/11/05 03:29:13;;;;;;;10.95;3.58;;;7.30;1.00;;;;;;5125421;27;20314;-84
2021/11/05 03:31:39;;;;;;;4.05;2.80;;;7.30;1.00;;;;;;5114388;27;20215;-84
2021/11/05 03:34:06;;;;;;;5.13;3.47;;;7.30;1.00;;;;;;5114476;27;20471;-83
2021/11/05 03:36:37;;;;;;;6.25;4.30;;;7.40;1.00;;;;;;5131575;27;20245;-82
2021/11/05 03:39:05;;;;;;;6.95;3.92;;;7.40;1.00;;;;;;5102149;27;21291;-84
2021/11/05 03:41:34;;;;;;;4.00;3.50;;;7.40;1.00;;;;;;5108879;27;20210;-84
2021/11/05 03:44:01;;;;;;;4.75;4.05;;;7.50;1.00;;;;;;5112379;27;20261;-83
2021/11/05 03:46:30;;;;;;;4.82;4.15;;;7.50;1.00;;;;;;5107985;27;20737;-82
2021/11/05 03:48:57;;;;;;;7.60;4.00;;;7.50;1.00;;;;;;5113301;27;20216;-84
2021/11/05 03:51:24;;;;;;;4.75;3.70;;;7.60;1.00;;;;;;5100724;27;20229;-83
2021/11/05 03:53:51;;;;;;;5.30;4.47;;;7.60;1.00;;;;;;5116721;27;20237;-85
2021/11/05 03:56:18;;;;;;;6.18;4.10;;;7.60;1.00;;;;;;5121198;27;20199;-85
2021/11/05 03:58:46;;;;;;;4.25;3.55;;;7.60;1.00;;;;;;5118898;27;20228;-84
2021/11/05 04:01:13;;;;;;;4.60;3.80;;;7.60;1.00;;;;;;5115092;27;20229;-84
2021/11/05 04:03:40;;;;;;;4.90;4.18;;;7.60;1.00;;;;;;5113436;27;20228;-85
2021/11/05 04:06:07;;;;;;;5.68;4.22;;;7.60;1.00;;;;;;5128868;27;20210;-84
2021/11/05 04:08:34;;;;;;;6.20;4.85;;;7.60;1.00;;;;;;5142448;27;20249;-84
2021/11/05 04:11:01;;;;;;;5.50;4.82;;;7.60;1.00;;;;;;5127307;27;20236;-84
2021/11/05 04:13:28;;;;;;;5.50;4.40;;;7.60;1.00;;;;;;5100143;27;20231;-86
2021/11/05 04:15:56;;;;;;;5.55;4.55;;;7.70;1.00;;;;;;5099218;27;21146;-84
2021/11/05 04:18:24;;;;;;;5.75;5.13;;;7.60;1.00;;;;;;5102666;27;20993;-85
2021/11/05 04:20:50;;;;;;;5.45;4.43;;;7.70;1.00;;;;;;5117841;27;20218;-84
2021/11/05 04:23:18;;;;;;;6.43;5.50;;;7.70;1.00;;;;;;5119370;27;20235;-83
2021/11/05 04:25:45;;;;;;;6.20;5.10;;;7.70;1.00;;;;;;5120194;27;20243;-84
2021/11/05 04:28:13;;;;;;;7.65;5.20;;;7.70;1.00;;;;;;5097123;27;20430;-83
2021/11/05 04:30:44;;;;;;;6.40;5.80;;;7.70;1.00;;;;;;5119331;27;20223;-85
2021/11/05 04:33:13;;;;;;;9.38;7.78;;;7.70;1.00;;;;;;5119818;27;20245;-86
2021/11/05 04:35:49;;;;;;;6.80;5.50;;;7.70;1.00;;;;;;5118429;27;20216;-83
2021/11/05 04:38:25;;;;;;;9.05;6.70;;;7.70;1.00;;;;;;5106449;27;20302;-84
2021/11/05 04:40:52;;;;;;;9.05;6.90;;;7.80;1.00;;;;;;5102632;27;20243;-84
2021/11/05 04:43:19;;;;;;;8.20;7.40;;;7.80;1.00;;;;;;5118014;27;20272;-84
2021/11/05 04:45:46;;;;;;;7.97;7.18;;;7.80;1.00;;;;;;5105547;27;20220;-84
2021/11/05 04:48:14;;;;;;;9.27;7.55;;;7.80;1.00;;;;;;5099541;27;20225;-84
2021/11/05 04:50:45;;;;;;;8.68;7.50;;;7.80;1.00;;;;;;5094866;27;20315;-85
2021/11/05 04:53:12;;;;;;;9.60;8.60;;;7.80;1.00;;;;;;5103589;27;20294;-84
2021/11/05 04:55:41;;;;;;;9.40;8.20;;;7.80;1.00;;;;;;5125851;27;20420;-84
2021/11/05 04:58:12;;;;;;;10.90;9.60;;;7.80;1.00;;;;;;5122426;27;20230;-85
2021/11/05 05:00:39;;;;;;;10.80;9.63;;;7.80;1.00;;;;;;5124741;27;20461;-83
2021/11/05 05:03:07;;;;;;;10.38;9.00;;;7.80;1.00;;;;;;5141876;27;20219;-83
2021/11/05 05:05:36;;;;;;;10.70;9.13;;;7.80;1.00;;;;;;5127385;27;20271;-84
2021/11/05 05:08:05;;;;;;;12.20;10.93;;;7.80;1.00;;;;;;5123551;27;20219;-85
2021/11/05 05:10:32;;;;;;;14.32;11.40;;;7.80;1.00;;;;;;5106668;27;20315;-86
2021/11/05 05:12:59;;;;;;;14.57;11.73;;;7.90;1.00;;;;;;5123125;27;20238;-86
2021/11/05 05:15:29;;;;;;;13.10;11.63;;;7.90;1.00;;;;;;5110948;27;20231;-84
2021/11/05 05:17:56;;;;;;;14.45;12.00;;;7.90;1.00;;;;;;5107332;27;20235;-83
2021/11/05 05:20:31;;;;;;;14.32;12.77;;;7.90;1.00;;;;;;5120436;27;20218;-82
2021/11/05 05:23:02;;;;;;;20.73;18.63;;;7.90;1.00;;;;;;5144286;27;21096;-82
2021/11/05 05:25:33;;;;;;;16.60;14.07;;;7.90;1.00;;;;;;5125450;27;20283;-82
2021/11/05 05:28:00;;;;;;;22.02;18.45;;;7.90;1.00;;;;;;5112294;27;20693;-85
2021/11/05 05:30:30;;;;;;;17.48;14.05;;;8.00;1.00;;;;;;5118336;27;20216;-86
2021/11/05 05:32:57;;;;;;;17.13;14.90;;;8.00;1.00;;;;;;5116323;27;20749;-83
2021/11/05 05:35:24;;;;;;;17.67;13.93;;;8.00;1.00;;;;;;5098885;27;20227;-86
2021/11/05 05:37:53;;;;;;;18.08;15.32;;;8.00;1.00;;;;;;5120741;27;20238;-83
2021/11/05 05:40:22;;;;;;;16.73;14.30;;;8.00;1.00;;;;;;5118680;27;20225;-84
2021/11/05 05:42:51;;;;;;;18.98;15.75;;;8.00;1.00;;;;;;5105639;27;21151;-83
2021/11/05 05:45:18;;;;;;;20.55;16.23;;;8.00;1.00;;;;;;5108427;27;22304;-84
2021/11/05 05:47:47;;;;;;;18.38;15.43;;;8.00;1.00;;;;;;5117838;27;20351;-86
2021/11/05 05:50:16;;;;;;;18.20;16.08;;;8.00;1.00;;;;;;5120588;27;20337;-83
2021/11/05 05:52:45;;;;;;;18.95;15.70;;;8.00;1.00;;;;;;5125130;27;20274;-83
2021/11/05 05:55:17;;;;;;;18.60;16.45;;;8.00;1.00;;;;;;5144905;27;20227;-83
2021/11/05 05:57:54;;;;;;;22.08;17.92;;;8.00;1.00;;;;;;5119943;27;20255;-84
2021/11/05 06:00:29;;;;;;;28.92;23.20;;;8.00;1.00;;;;;;5108132;27;20238;-85
2021/11/05 06:02:58;;;;;;;19.23;16.25;;;8.00;1.00;;;;;;5120399;27;20219;-85
2021/11/05 06:05:29;;;;;;;20.88;18.17;;;8.00;1.00;;;;;;5103013;27;20769;-86
2021/11/05 06:07:59;;;;;;;20.33;17.27;;;8.00;1.00;;;;;;5123466;27;21177;-83
2021/11/05 06:10:35;;;;;;;24.73;18.15;;;8.00;1.00;;;;;;5114512;27;20463;-83
2021/11/05 06:13:06;;;;;;;21.65;16.00;;;8.00;1.00;;;;;;5121293;27;20417;-84
2021/11/05 06:15:37;;;;;;;22.60;15.37;;;8.00;1.00;;;;;;5109413;27;20298;-83
2021/11/05 06:18:04;;;;;;;19.52;17.15;;;8.00;1.00;;;;;;5121615;27;20476;-82
2021/11/05 06:20:42;;;;;;;24.23;17.48;;;8.00;1.00;;;;;;5124963;27;20224;-83
2021/11/05 06:23:20;;;;;;;22.02;19.58;;;8.00;1.00;;;;;;5119194;27;20270;-85
2021/11/05 06:25:53;;;;;;;23.05;18.67;;;8.10;1.00;;;;;;5129476;27;20218;-84
2021/11/05 06:28:30;;;;;;;22.70;18.88;;;8.10;1.00;;;;;;5100990;27;20224;-86
2021/11/05 06:31:00;;;;;;;21.02;17.00;;;8.10;1.00;;;;;;5106938;27;20317;-85
2021/11/05 06:33:30;;;;;;;23.00;18.33;;;8.20;1.00;;;;;;5123391;27;20230;-84
2021/11/05 06:35:57;;;;;;;20.35;17.17;;;8.10;1.00;;;;;;5129698;27;20806;-82
2021/11/05 08:38:57;;;;;;;16.88;12.80;;;9.00;1.00;;;;;;4919898;23;21926;-78
2021/11/05 08:41:24;;;;;;;16.73;12.18;;;9.00;1.00;;;;;;4992724;28;20221;-79
2021/11/05 08:43:55;;;;;;;15.60;13.18;;;9.00;1.00;;;;;;4991601;28;20748;-79
2021/11/05 08:46:23;;;;;;;17.65;13.07;;;9.00;1.00;;;;;;4975709;28;20227;-78
2021/11/05 08:48:51;;;;;;;15.52;12.43;;;9.00;1.00;;;;;;4976417;28;20317;-79
2021/11/05 08:51:18;;;;;;;15.82;11.88;;;9.10;1.00;;;;;;4973260;28;20228;-79
2021/11/05 08:53:45;;;;;;;15.00;12.27;;;9.10;1.00;;;;;;4975758;28;20320;-75
2021/11/05 08:56:15;;;;;;;15.67;13.83;;;9.10;1.00;;;;;;4971682;28;20523;-75
2021/11/05 08:58:43;;;;;;;13.30;11.30;;;9.20;1.00;;;;;;4970710;28;20459;-74
2021/11/05 09:01:10;;;;;;;13.75;10.75;;;9.20;1.00;;;;;;4955328;28;20458;-76
2021/11/05 09:03:36;;;;;;;15.50;11.80;;;9.30;1.00;;;;;;4974305;28;20240;-76
2021/11/05 09:06:04;;;;;;;14.87;12.83;;;9.30;1.00;;;;;;4972911;28;20455;-75
2021/11/05 09:08:32;;;;;;;14.40;11.10;;;9.30;1.00;;;;;;4978408;28;20457;-75
2021/11/05 09:10:59;;;;;;;13.10;11.10;;;9.30;1.00;;;;;;4983413;28;20455;-75
2021/11/05 09:13:28;;;;;;;15.63;11.17;;;9.30;1.00;;;;;;4988677;28;20496;-82
2021/11/05 09:15:55;;;;;;;12.20;10.70;;;9.40;1.00;;;;;;4992127;28;20758;-82
2021/11/05 09:18:22;;;;;;;13.50;10.40;;;9.40;1.00;;;;;;4990391;28;20459;-81
2021/11/05 09:20:49;;;;;;;14.33;11.07;;;9.40;1.00;;;;;;4986209;28;20558;-81
2021/11/05 09:23:16;;;;;;;16.55;10.55;;;9.50;1.00;;;;;;4968692;28;21012;-80
2021/11/05 09:25:43;;;;;;;14.37;10.20;;;9.50;1.00;;;;;;4962006;28;20236;-82
2021/11/05 09:28:10;;;;;;;12.33;9.30;;;9.50;1.00;;;;;;4979725;28;20784;-81
2021/11/05 09:30:38;;;;;;;10.57;9.48;;;9.50;1.00;;;;;;4976339;28;20463;-83
2021/11/05 09:33:05;;;;;;;11.23;8.88;;;9.50;1.00;;;;;;4971502;28;20224;-81
2021/11/05 09:35:32;;;;;;;13.13;9.77;;;9.40;1.00;;;;;;4974531;28;20219;-82
2021/11/05 09:37:59;;;;;;;11.73;9.33;;;9.40;1.00;;;;;;4975390;28;20455;-80
2021/11/05 09:40:27;;;;;;;13.03;9.10;;;9.40;1.00;;;;;;4976919;28;20548;-81
2021/11/05 09:42:55;;;;;;;9.27;7.35;;;9.50;1.00;;;;;;4967336;28;20442;-81
2021/11/05 09:45:24;;;;;;;13.40;8.33;;;9.60;1.00;;;;;;4960091;28;20337;-80
2021/11/05 09:47:52;;;;;;;9.57;7.30;;;9.70;1.00;;;;;;4974901;28;20528;-81
2021/11/05 09:50:21;;;;;;;8.93;6.80;;;9.70;1.00;;;;;;4975436;28;21016;-81
2021/11/05 09:52:49;;;;;;;9.18;7.95;;;9.80;1.00;;;;;;4970959;28;21511;-83
2021/11/05 09:55:17;;;;;;;10.50;8.27;;;9.80;1.00;;;;;;4976014;28;20240;-78
2021/11/05 09:57:44;;;;;;;10.60;8.17;;;9.80;1.00;;;;;;4975592;28;20234;-80
2021/11/05 10:00:14;;;;;;;9.60;8.25;;;9.80;1.00;;;;;;4975810;28;20442;-80
2021/11/05 10:02:43;;;;;;;9.30;7.20;;;9.80;1.00;;;;;;4975009;28;20234;-79
2021/11/05 10:05:12;;;;;;;11.73;8.87;;;9.70;1.00;;;;;;4973881;28;20483;-79
2021/11/05 10:07:47;;;;;;;10.17;7.37;;;9.90;1.00;;;;;;4971271;28;20443;-77
2021/11/05 10:10:14;;;;;;;9.18;7.45;;;10.00;1.00;;;;;;4970814;28;20600;-77
2021/11/05 10:12:53;;;;;;;8.63;7.57;;;10.10;1.00;;;;;;4970496;28;20541;-76
2021/11/05 10:15:26;;;;;;;11.37;8.40;;;10.10;1.00;;;;;;4982564;28;20238;-76
2021/11/05 10:18:11;;;;;;;11.70;8.80;;;10.00;1.00;;;;;;4993803;28;20418;-76
2021/11/05 10:20:40;;;;;;;13.85;12.05;;;10.00;1.00;;;;;;4981780;28;20990;-78
2021/11/05 10:23:07;;;;;;;11.13;9.25;;;10.00;1.00;;;;;;4976612;28;20336;-81
2021/11/05 10:25:37;;;;;;;10.32;7.72;;;10.00;1.00;;;;;;4978188;28;20235;-79
2021/11/05 10:28:16;;;;;;;12.18;8.13;;;9.90;1.00;;;;;;4974027;28;21300;-81
2021/11/05 10:30:58;;;;;;;10.95;8.45;;;10.00;1.00;;;;;;4970100;28;20279;-79
2021/11/05 10:33:29;;;;;;;8.18;7.18;;;10.00;1.00;;;;;;4977791;28;20220;-79
2021/11/05 10:35:59;;;;;;;12.52;9.98;;;10.00;1.00;;;;;;4973816;28;20309;-81
2021/11/05 10:38:26;;;;;;;11.57;7.97;;;9.90;1.00;;;;;;4978399;28;20228;-81
2021/11/05 10:40:54;;;;;;;9.60;6.87;;;9.90;1.00;;;;;;4957453;28;20519;-82
2021/11/05 10:43:33;;;;;;;9.20;7.40;;;9.90;1.00;;;;;;4975307;28;20471;-80
2021/11/05 10:46:01;;;;;;;10.60;7.13;;;9.90;1.00;;;;;;4955702;28;20435;-81
2021/11/05 10:48:30;;;;;;;7.80;6.30;;;10.00;1.00;;;;;;4980938;28;20463;-79
2021/11/05 10:51:02;;;;;;;7.50;6.47;;;10.00;1.00;;;;;;4978453;28;20453;-80
2021/11/05 10:53:32;;;;;;;7.63;6.13;;;10.00;1.00;;;;;;4980418;28;20252;-79
2021/11/05 10:56:02;;;;;;;8.23;6.73;;;10.20;1.00;;;;;;4980331;28;20881;-81
2021/11/05 10:58:30;;;;;;;7.15;6.45;;;10.30;1.00;;;;;;4973200;28;20468;-80
2021/11/05 11:00:59;;;;;;;10.57;6.70;;;10.40;1.00;;;;;;4975043;28;20272;-81
2021/11/05 11:03:31;;;;;;;7.80;6.00;;;10.50;1.00;;;;;;4974128;28;20524;-81
2021/11/05 11:06:04;;;;;;;9.13;5.53;;;10.50;1.00;;;;;;4979440;28;20459;-80
2021/11/05 11:08:34;;;;;;;12.30;6.90;;;10.60;1.00;;;;;;4973591;28;20442;-80
2021/11/05 11:11:13;;;;;;;8.80;6.37;;;10.80;1.00;;;;;;4978810;28;20491;-79
2021/11/05 11:13:40;;;;;;;7.00;5.83;;;10.90;1.00;;;;;;4987357;28;20446;-79
2021/11/05 11:16:09;;;;;;;7.80;6.43;;;10.80;1.00;;;;;;5002429;28;20483;-80
2021/11/05 11:18:54;;;;;;;8.23;5.80;;;10.70;1.00;;;;;;4985641;28;20471;-78
2021/11/05 11:21:24;;;;;;;7.40;5.00;;;10.70;1.00;;;;;;4967770;28;20463;-80
2021/11/05 11:23:51;;;;;;;9.17;5.80;;;10.70;1.00;;;;;;4980553;28;20420;-81
2021/11/05 11:26:19;;;;;;;5.50;4.90;;;10.60;1.00;;;;;;4978253;28;20473;-81
2021/11/05 11:28:47;;;;;;;6.40;5.10;;;10.60;1.00;;;;;;4978757;28;20511;-82
2021/11/05 11:31:15;;;;;;;6.20;5.40;;;10.60;1.00;;;;;;4974989;28;20459;-80
2021/11/05 11:33:42;;;;;;;9.30;6.07;;;10.50;1.00;;;;;;4978715;28;20439;-80
2021/11/05 11:36:11;;;;;;;8.83;5.70;;;10.50;1.00;;;;;;4974593;28;20501;-80
2021/11/05 11:38:39;;;;;;;8.13;6.33;;;10.50;1.00;;;;;;4975866;28;20455;-81
2021/11/05 11:41:08;;;;;;;8.23;5.70;;;10.50;1.00;;;;;;4989937;28;20477;-81
2021/11/05 11:43:35;;;;;;;6.28;5.63;;;10.50;1.00;;;;;;4976204;28;20459;-79
2021/11/05 11:46:02;;;;;;;10.00;6.87;;;10.50;1.00;;;;;;4975977;28;20304;-80
2021/11/05 11:48:50;;;;;;;6.60;5.90;;;10.50;1.00;;;;;;4977540;28;20456;-79
2021/11/05 11:51:19;;;;;;;10.37;6.17;;;10.60;1.00;;;;;;4976364;28;20468;-80
2021/11/05 11:53:48;;;;;;;7.53;5.50;;;10.70;1.00;;;;;;4968731;28;20455;-81
2021/11/05 11:56:25;;;;;;;8.67;6.00;;;10.70;1.00;;;;;;4972421;28;20442;-80
2021/11/05 11:58:59;;;;;;;8.20;5.90;;;10.80;1.00;;;;;;4976006;28;20448;-80
2021/11/05 12:01:28;;;;;;;11.87;7.33;;;10.70;1.00;;;;;;4975642;28;20499;-79
2021/11/05 12:03:58;;;;;;;11.75;9.40;;;10.70;1.00;;;;;;4975120;28;20507;-81
2021/11/05 12:06:24;;;;;;;6.93;6.03;;;10.70;1.00;;;;;;4970704;28;20299;-81
2021/11/05 12:08:53;;;;;;;7.00;5.87;;;10.60;1.00;;;;;;4977793;28;20452;-79
2021/11/05 12:11:27;;;;;;;12.27;6.50;;;10.70;1.00;;;;;;5003090;28;20481;-79
2021/11/05 12:14:00;;;;;;;8.73;6.53;;;10.80;1.00;;;;;;4990717;28;20514;-80
2021/11/05 12:16:30;;;;;;;9.37;7.63;;;10.80;1.00;;;;;;4983945;28;20551;-78
2021/11/05 12:19:18;;;;;;;9.07;6.33;;;10.80;1.00;;;;;;4984884;28;20448;-80
2021/11/05 12:21:47;;;;;;;7.90;6.73;;;10.90;1.00;;;;;;4977694;28;20471;-81
2021/11/05 12:24:29;;;;;;;9.17;6.33;;;10.90;1.00;;;;;;4978835;28;20496;-80
2021/11/05 12:27:14;;;;;;;8.40;5.90;;;10.90;1.00;;;;;;4981827;28;20522;-81
2021/11/05 12:30:09;;;;;;;9.83;7.47;;;11.00;1.00;;;;;;4964455;28;21160;-81
2021/11/05 12:32:37;;;;;;;11.30;6.70;;;11.10;1.00;;;;;;4982853;28;20498;-81
2021/11/05 12:35:22;;;;;;;7.70;6.57;;;11.00;1.00;;;;;;4980622;28;20525;-81
2021/11/05 12:38:07;;;;;;;8.17;6.73;;;11.20;1.00;;;;;;4979932;28;20452;-78
2021/11/05 12:40:39;;;;;;;10.23;7.10;;;11.30;1.00;;;;;;4979106;28;20537;-81
2021/11/05 12:43:28;;;;;;;8.20;6.70;;;11.30;1.00;;;;;;4963723;28;20550;-79
2021/11/05 12:45:57;;;;;;;8.27;6.60;;;11.30;1.00;;;;;;4975065;28;20549;-80
2021/11/05 12:49:05;;;;;;;7.10;6.40;;;11.50;1.00;;;;;;4982276;28;20530;-81
2021/11/05 12:51:41;;;;;;;9.07;7.33;;;11.60;1.00;;;;;;4921610;28;20471;-79
2021/11/05 12:54:12;;;;;;;7.60;6.77;;;11.80;1.00;;;;;;4971684;28;20451;-81
2021/11/05 12:56:42;;;;;;;7.73;5.93;;;11.80;1.00;;;;;;4979067;28;20551;-80
2021/11/05 12:59:12;;;;;;;9.13;7.10;;;11.90;1.00;;;;;;4978391;28;21670;-81
2021/11/05 13:01:39;;;;;;;10.23;6.70;;;11.90;1.00;;;;;;4964271;28;21437;-79
2021/11/05 13:04:10;;;;;;;8.70;6.23;;;11.80;1.00;;;;;;4972149;28;20490;-81
2021/11/05 13:06:40;;;;;;;8.37;6.37;;;11.70;1.00;;;;;;4986720;28;20904;-80
2021/11/05 13:09:22;;;;;;;9.40;7.20;;;11.70;1.00;;;;;;4987349;28;20980;-78
2021/11/05 13:11:55;;;;;;;9.67;6.40;;;11.80;1.00;;;;;;4975442;28;20558;-81
2021/11/05 13:14:39;;;;;;;7.00;6.13;;;11.90;1.00;;;;;;4979041;28;20475;-79
2021/11/05 13:17:11;;;;;;;6.50;5.13;;;11.90;1.00;;;;;;4971250;28;20451;-80
2021/11/05 13:19:43;;;;;;;7.47;5.70;;;12.00;1.00;;;;;;4975875;28;20449;-83
2021/11/05 13:22:10;;;;;;;10.70;5.10;;;12.10;1.00;;;;;;4975232;28;20490;-79
2021/11/05 13:24:37;;;;;;;9.40;5.80;;;12.00;1.00;;;;;;4983980;28;20487;-80
2021/11/05 13:27:07;;;;;;;6.40;4.97;;;12.00;1.00;;;;;;4984801;28;21753;-81
2021/11/05 13:29:34;;;;;;;9.00;6.30;;;11.90;1.00;;;;;;4989688;28;20555;-80
2021/11/05 13:32:12;;;;;;;12.73;5.97;;;11.90;1.00;;;;;;4978107;28;20416;-80
2021/11/05 13:34:39;;;;;;;13.20;6.67;;;11.90;1.00;;;;;;4960473;28;20443;-80
2021/11/05 13:37:20;;;;;;;9.63;7.10;;;11.90;1.00;;;;;;4961610;28;21040;-80
2021/11/05 13:39:49;;;;;;;13.90;6.40;;;11.80;1.00;;;;;;4971947;28;20467;-79
2021/11/05 13:42:20;;;;;;;8.90;6.63;;;11.80;1.00;;;;;;4970265;28;21071;-81
2021/11/05 13:45:01;;;;;;;10.63;7.30;;;11.80;1.00;;;;;;4958013;28;21061;-81
2021/11/05 13:47:27;;;;;;;8.97;7.27;;;11.70;1.00;;;;;;4970072;28;20551;-81
2021/11/05 13:50:02;;;;;;;10.40;7.83;;;11.60;1.00;;;;;;4975563;28;20460;-80
2021/11/05 13:52:29;;;;;;;9.87;7.40;;;11.40;1.00;;;;;;4976479;28;21250;-80
2021/11/05 13:54:56;;;;;;;11.23;7.87;;;11.30;1.00;;;;;;4972676;28;21105;-80
2021/11/05 13:57:24;;;;;;;11.33;8.10;;;11.20;1.00;;;;;;4973680;28;21091;-81
2021/11/05 13:59:53;;;;;;;8.50;7.57;;;11.00;1.00;;;;;;4958868;28;21892;-81
2021/11/05 14:02:22;;;;;;;12.43;9.07;;;11.00;1.00;;;;;;4974135;28;20455;-81
2021/11/05 14:04:51;;;;;;;8.67;7.77;;;10.90;1.00;;;;;;4971878;28;20483;-80
2021/11/05 14:07:19;;;;;;;7.60;6.43;;;11.00;1.00;;;;;;4970650;28;20464;-80
2021/11/05 14:09:46;;;;;;;12.33;8.30;;;10.90;1.00;;;;;;4975001;28;20464;-80
2021/11/05 14:12:16;;;;;;;9.80;7.83;;;10.90;1.00;;;;;;4995540;28;20435;-80
2021/11/05 14:14:51;;;;;;;9.87;8.63;;;10.80;1.00;;;;;;4996029;28;20546;-82
2021/11/05 14:17:20;;;;;;;11.10;8.93;;;10.90;1.00;;;;;;4976465;28;20451;-80
2021/11/05 14:19:53;;;;;;;8.60;7.70;;;10.90;1.00;;;;;;4974561;28;21245;-81
2021/11/05 14:22:20;;;;;;;11.57;9.30;;;10.80;1.00;;;;;;4977516;28;20499;-81
2021/11/05 14:24:49;;;;;;;10.03;9.03;;;10.90;1.00;;;;;;4976779;28;20504;-80
2021/11/05 14:27:19;;;;;;;10.50;8.47;;;10.90;1.00;;;;;;4976364;28;21271;-81
2021/11/05 14:29:49;;;;;;;10.30;9.20;;;10.90;1.00;;;;;;4974165;28;20574;-81
2021/11/05 14:32:18;;;;;;;9.83;8.83;;;10.90;1.00;;;;;;4969832;28;20463;-80
2021/11/05 14:34:51;;;;;;;12.40;9.47;;;10.90;1.00;;;;;;4976562;28;20463;-81
2021/11/05 14:37:20;;;;;;;10.53;9.50;;;10.90;1.00;;;;;;4956152;28;20471;-80
2021/11/05 14:39:54;;;;;;;12.00;9.77;;;10.80;1.00;;;;;;4975101;28;20451;-78
2021/11/05 14:42:25;;;;;;;9.57;8.20;;;10.80;1.00;;;;;;4972521;28;20476;-80
2021/11/05 14:44:55;;;;;;;12.80;10.10;;;10.80;1.00;;;;;;4971107;28;20472;-81
2021/11/05 14:47:23;;;;;;;10.30;9.00;;;10.80;1.00;;;;;;4972119;28;20455;-82
2021/11/05 14:49:50;;;;;;;11.03;8.50;;;10.80;1.00;;;;;;4960305;28;20952;-82
2021/11/05 14:52:18;;;;;;;10.57;9.47;;;10.80;1.00;;;;;;4971364;28;20462;-81
2021/11/05 14:54:45;;;;;;;9.37;8.23;;;10.70;1.00;;;;;;4974206;28;20462;-82
2021/11/05 14:57:19;;;;;;;10.80;9.00;;;10.60;1.00;;;;;;4969044;28;20582;-81
2021/11/05 14:59:47;;;;;;;11.60;9.67;;;10.60;1.00;;;;;;4980409;28;20478;-82
2021/11/05 15:02:36;;;;;;;12.30;9.47;;;10.60;1.00;;;;;;4969696;28;20459;-81
2021/11/05 15:05:26;;;;;;;9.90;8.90;;;10.60;1.00;;;;;;4973237;28;20455;-81
2021/11/05 15:08:00;;;;;;;15.53;9.37;;;10.50;1.00;;;;;;4975864;28;20447;-82
2021/11/05 15:10:28;;;;;;;10.30;9.00;;;10.50;1.00;;;;;;5001966;28;20485;-81
2021/11/05 15:12:55;;;;;;;11.67;10.03;;;10.50;1.00;;;;;;4977629;28;20458;-82
2021/11/05 15:15:25;;;;;;;11.17;8.40;;;10.50;1.00;;;;;;4975438;28;20485;-81